Time;durP1;ratioP1;P1;durP2;ratioP2;P2;SDS_P1;SDS_P2;PMS_P1;PMS_P2;Temp;Humidity;BMP_temperature;BMP_pressure;BME280_temperature;BME280_humidity;BME280_pressure;Samples;Min_cycle;Max_cycle;Signal;HPM_P1;HPM_P2
2021/10/02 00:31:11;;;;;;;25.00;16.80;;;7.40;99.90;;;;;;5251191;28;20229;-69
2021/10/02 00:36:48;;;;;;;38.97;22.47;;;7.00;99.90;;;;;;5251292;28;20262;-71
2021/10/02 00:45:04;;;;;;;39.33;25.03;;;7.00;99.90;;;;;;5251090;28;20589;-69
2021/10/02 00:47:36;;;;;;;41.70;25.50;;;7.00;99.90;;;;;;5249349;28;20234;-69
2021/10/02 00:50:09;;;;;;;43.87;26.53;;;7.00;99.90;;;;;;5250543;28;20683;-72
2021/10/02 00:52:43;;;;;;;38.90;25.80;;;7.00;99.90;;;;;;5250351;28;20574;-71
2021/10/02 00:55:15;;;;;;;46.80;26.00;;;7.00;99.90;;;;;;5250211;28;20203;-71
2021/10/02 00:57:50;;;;;;;41.57;25.67;;;7.00;99.90;;;;;;5250102;28;20259;-70
2021/10/02 01:00:22;;;;;;;45.93;27.43;;;7.00;99.90;;;;;;5250392;28;20219;-70
2021/10/02 01:03:15;;;;;;;43.77;27.07;;;6.90;99.90;;;;;;5249235;28;20245;-72
2021/10/02 01:06:02;;;;;;;45.63;26.77;;;6.90;99.90;;;;;;5249268;28;20220;-69
2021/10/02 01:08:52;;;;;;;47.83;27.53;;;6.90;99.90;;;;;;5249264;28;20200;-71
2021/10/02 01:11:46;;;;;;;48.70;28.07;;;6.90;99.90;;;;;;5249719;28;20205;-69
2021/10/02 01:14:31;;;;;;;47.23;27.77;;;6.90;99.90;;;;;;5250430;28;20185;-70
2021/10/02 01:17:12;;;;;;;49.17;28.47;;;6.90;99.90;;;;;;5249003;28;20325;-70
2021/10/02 01:20:05;;;;;;;49.17;28.90;;;6.90;99.90;;;;;;5249381;28;20224;-70
2021/10/02 01:22:59;;;;;;;51.27;30.30;;;6.90;99.90;;;;;;5249891;28;20225;-68
2021/10/02 01:25:57;;;;;;;57.40;31.37;;;6.90;99.90;;;;;;5249901;28;20208;-73
2021/10/02 01:28:32;;;;;;;49.20;30.23;;;6.80;99.90;;;;;;5249311;28;20239;-72
2021/10/02 01:31:22;;;;;;;47.13;28.37;;;6.80;99.90;;;;;;5250088;28;20200;-72
2021/10/02 01:36:58;;;;;;;47.43;27.57;;;6.80;99.90;;;;;;5249723;28;20203;-69
2021/10/02 01:48:07;;;;;;;49.83;27.80;;;6.70;99.90;;;;;;5249587;28;20529;-69
2021/10/02 01:50:43;;;;;;;48.67;29.07;;;6.70;99.90;;;;;;5249205;28;20216;-73
2021/10/02 01:53:16;;;;;;;47.40;27.10;;;6.70;99.90;;;;;;5253846;28;20322;-69
2021/10/02 01:55:50;;;;;;;48.17;29.17;;;6.70;99.90;;;;;;5252937;28;20192;-71
2021/10/02 01:58:23;;;;;;;50.87;28.47;;;6.70;99.90;;;;;;5253866;28;20530;-69
2021/10/02 02:00:56;;;;;;;49.77;28.33;;;6.60;99.90;;;;;;5253855;28;20228;-68
2021/10/02 02:03:31;;;;;;;51.87;29.13;;;6.60;99.90;;;;;;5253711;28;20229;-72
2021/10/02 02:06:06;;;;;;;52.60;28.70;;;6.60;99.90;;;;;;5253774;28;20304;-70
2021/10/02 02:08:43;;;;;;;63.27;31.07;;;6.60;99.90;;;;;;5254350;28;20663;-71
2021/10/02 02:11:31;;;;;;;53.87;30.53;;;6.60;99.90;;;;;;5253195;28;20236;-68
2021/10/02 02:14:03;;;;;;;57.33;30.50;;;6.60;99.90;;;;;;5253081;28;20243;-70
2021/10/02 02:16:39;;;;;;;55.37;29.87;;;6.60;99.90;;;;;;5253667;28;20215;-70
2021/10/02 02:19:17;;;;;;;53.77;30.37;;;6.50;99.90;;;;;;5252869;28;20220;-71
2021/10/02 02:21:49;;;;;;;55.17;29.40;;;6.50;99.90;;;;;;5253769;28;20229;-68
2021/10/02 02:24:21;;;;;;;52.90;29.73;;;6.50;99.90;;;;;;5253288;28;20224;-69
2021/10/02 02:26:53;;;;;;;50.97;29.23;;;6.40;99.90;;;;;;5253023;28;20212;-70
2021/10/02 02:29:27;;;;;;;56.63;30.83;;;6.40;99.90;;;;;;5253109;28;20236;-68
2021/10/02 02:32:03;;;;;;;52.67;29.40;;;6.40;99.90;;;;;;5251735;28;20630;-71
2021/10/02 02:34:38;;;;;;;57.77;29.50;;;6.50;99.90;;;;;;5252550;28;20251;-69
2021/10/02 02:37:10;;;;;;;58.10;30.70;;;6.50;99.90;;;;;;5253222;28;20600;-68
2021/10/02 02:39:42;;;;;;;54.63;28.70;;;6.40;99.90;;;;;;5253625;28;20308;-69
2021/10/02 02:42:18;;;;;;;53.97;29.67;;;6.40;99.90;;;;;;5253664;28;20566;-70
2021/10/02 02:44:51;;;;;;;52.33;28.80;;;6.40;99.90;;;;;;5251961;28;20247;-72
2021/10/02 02:47:28;;;;;;;52.87;27.73;;;6.40;99.90;;;;;;5252860;28;20292;-70
2021/10/02 02:50:06;;;;;;;50.70;29.03;;;6.40;99.90;;;;;;5252548;28;20232;-67
2021/10/02 02:52:50;;;;;;;48.13;27.93;;;6.40;99.90;;;;;;5252772;28;20625;-70
2021/10/02 02:55:26;;;;;;;54.27;28.23;;;6.40;99.90;;;;;;5252336;28;20307;-72
2021/10/02 02:58:03;;;;;;;51.40;28.57;;;6.30;99.90;;;;;;5251559;28;20650;-71
2021/10/02 03:00:53;;;;;;;49.00;27.03;;;6.40;99.90;;;;;;5253043;28;20616;-70
2021/10/02 03:03:34;;;;;;;46.00;26.73;;;6.40;99.90;;;;;;5251643;28;20236;-70
2021/10/02 03:06:12;;;;;;;46.43;27.83;;;6.30;99.90;;;;;;5253045;28;20238;-73
2021/10/02 03:08:51;;;;;;;48.70;27.47;;;6.30;99.90;;;;;;5252165;28;20205;-69
2021/10/02 03:11:24;;;;;;;46.03;27.63;;;6.30;99.90;;;;;;5252384;28;20247;-72
2021/10/02 03:13:58;;;;;;;51.87;28.33;;;6.30;99.90;;;;;;5252446;28;20542;-71
2021/10/02 03:16:31;;;;;;;48.10;28.00;;;6.30;99.90;;;;;;5252326;28;20536;-70
2021/10/02 03:19:08;;;;;;;49.33;26.30;;;6.30;99.90;;;;;;5252517;28;20224;-69
2021/10/02 03:21:41;;;;;;;57.73;29.03;;;6.20;99.90;;;;;;5252286;28;20255;-72
2021/10/02 03:24:15;;;;;;;50.43;27.73;;;6.20;99.90;;;;;;5252840;28;20510;-69
2021/10/02 03:26:50;;;;;;;49.93;27.63;;;6.20;99.90;;;;;;5252304;28;20225;-69
2021/10/02 03:29:25;;;;;;;49.37;28.27;;;6.30;99.90;;;;;;5252053;28;20620;-72
2021/10/02 03:31:58;;;;;;;45.70;27.40;;;6.30;99.90;;;;;;5252321;28;20243;-68
2021/10/02 03:34:33;;;;;;;50.63;27.90;;;6.20;99.90;;;;;;5251554;28;20215;-70
2021/10/02 03:37:05;;;;;;;50.80;26.53;;;6.20;99.90;;;;;;5251893;28;20243;-69
2021/10/02 03:39:37;;;;;;;49.43;28.00;;;6.20;99.90;;;;;;5251924;28;20201;-69
2021/10/02 03:42:11;;;;;;;48.73;26.17;;;6.20;99.90;;;;;;5251817;28;20239;-71
2021/10/02 03:44:45;;;;;;;44.70;24.87;;;6.20;99.90;;;;;;5251394;28;20216;-72
2021/10/02 03:47:20;;;;;;;46.23;26.57;;;6.20;99.90;;;;;;5250632;28;20307;-69
2021/10/02 03:49:52;;;;;;;45.73;25.93;;;6.10;99.90;;;;;;5251676;28;20201;-69
2021/10/02 03:52:24;;;;;;;48.73;27.13;;;6.10;99.90;;;;;;5251707;28;20316;-69
2021/10/02 03:54:59;;;;;;;48.13;27.40;;;6.10;99.90;;;;;;5251265;28;20212;-73
2021/10/02 03:57:33;;;;;;;54.93;29.03;;;6.10;99.90;;;;;;5251600;28;20228;-72
2021/10/02 04:00:07;;;;;;;53.80;29.47;;;6.10;99.90;;;;;;5250740;28;20259;-70
2021/10/02 04:02:39;;;;;;;54.20;29.03;;;6.10;99.90;;;;;;5249952;28;20241;-72
2021/10/02 04:05:11;;;;;;;52.00;28.67;;;6.10;99.90;;;;;;5250909;28;20208;-72
2021/10/02 04:07:43;;;;;;;55.30;30.47;;;6.10;99.90;;;;;;5250031;28;20268;-70
2021/10/02 04:10:15;;;;;;;55.23;28.50;;;6.20;99.90;;;;;;5250788;28;20231;-70
2021/10/02 04:12:47;;;;;;;55.13;28.97;;;6.10;99.90;;;;;;5252138;28;20255;-73
2021/10/02 04:15:20;;;;;;;54.80;29.37;;;6.20;99.90;;;;;;5250385;28;20204;-74
2021/10/02 04:17:51;;;;;;;54.87;28.93;;;6.20;99.90;;;;;;5251190;28;20251;-71
2021/10/02 04:20:24;;;;;;;55.57;29.73;;;6.20;99.90;;;;;;5251210;28;20255;-71
2021/10/02 04:22:56;;;;;;;55.63;28.40;;;6.20;99.90;;;;;;5250905;28;20595;-70
2021/10/02 04:25:28;;;;;;;56.87;30.70;;;6.20;99.90;;;;;;5251301;28;20205;-68
2021/10/02 04:28:00;;;;;;;57.10;30.47;;;6.20;99.90;;;;;;5251243;28;20231;-75
2021/10/02 04:30:32;;;;;;;56.87;29.73;;;6.20;99.90;;;;;;5251170;28;20219;-71
2021/10/02 04:33:04;;;;;;;59.97;31.17;;;6.30;99.90;;;;;;5250689;28;20263;-72
2021/10/02 04:35:39;;;;;;;58.57;30.90;;;6.30;99.90;;;;;;5250769;28;20208;-71
2021/10/02 04:38:11;;;;;;;61.77;30.33;;;6.30;99.90;;;;;;5250821;28;20229;-71
2021/10/02 04:40:45;;;;;;;66.30;32.00;;;6.30;99.90;;;;;;5250302;28;20227;-69
2021/10/02 04:43:17;;;;;;;65.50;30.67;;;6.30;99.90;;;;;;5250311;28;20315;-71
2021/10/02 04:45:52;;;;;;;72.03;33.07;;;6.30;99.90;;;;;;5250577;28;20209;-72
2021/10/02 04:48:24;;;;;;;69.90;32.83;;;6.40;99.90;;;;;;5250449;28;20232;-71
2021/10/02 04:50:56;;;;;;;67.50;32.67;;;6.40;99.90;;;;;;5250610;28;20287;-71
2021/10/02 04:53:31;;;;;;;69.60;33.23;;;6.40;99.90;;;;;;5232624;28;20319;-72
2021/10/02 04:56:06;;;;;;;71.40;33.90;;;6.40;99.90;;;;;;5250699;28;20207;-68
2021/10/02 04:58:38;;;;;;;74.57;33.30;;;6.40;99.90;;;;;;5250001;28;20228;-68
2021/10/02 05:01:11;;;;;;;72.63;33.23;;;6.50;99.90;;;;;;5248790;28;20286;-69
2021/10/02 05:03:43;;;;;;;76.27;34.00;;;6.50;99.90;;;;;;5249540;28;20256;-70
2021/10/02 05:06:15;;;;;;;71.20;32.77;;;6.60;99.90;;;;;;5250325;28;20204;-69
2021/10/02 05:08:50;;;;;;;69.23;32.67;;;6.60;99.90;;;;;;5249440;28;20293;-70
2021/10/02 05:11:23;;;;;;;70.90;32.93;;;6.60;99.90;;;;;;5250238;28;20291;-70
2021/10/02 05:13:55;;;;;;;68.60;31.53;;;6.70;99.90;;;;;;5249875;28;20219;-69
2021/10/02 05:16:27;;;;;;;74.77;34.23;;;6.70;99.90;;;;;;5250296;28;20277;-71
2021/10/02 05:18:59;;;;;;;74.40;34.13;;;6.80;99.90;;;;;;5250059;28;20295;-68
2021/10/02 05:21:31;;;;;;;74.30;32.93;;;6.80;99.90;;;;;;5250032;28;20220;-68
2021/10/02 05:24:03;;;;;;;82.83;35.43;;;6.90;99.90;;;;;;5249407;28;20207;-69
2021/10/02 05:26:35;;;;;;;79.80;35.47;;;6.90;99.90;;;;;;5249407;28;20203;-69
2021/10/02 05:29:07;;;;;;;75.87;35.43;;;6.90;99.90;;;;;;5249629;28;20640;-68
2021/10/02 05:31:40;;;;;;;86.63;35.13;;;7.00;99.90;;;;;;5248552;28;20215;-70
2021/10/02 05:34:12;;;;;;;82.63;35.37;;;7.00;99.90;;;;;;5249379;28;20204;-69
2021/10/02 05:36:44;;;;;;;79.27;35.63;;;7.10;99.90;;;;;;5249880;28;20531;-70
2021/10/02 05:39:16;;;;;;;82.60;35.63;;;7.10;99.90;;;;;;5250632;28;20531;-71
2021/10/02 05:41:48;;;;;;;78.57;35.03;;;7.10;99.90;;;;;;5248134;28;20228;-70
2021/10/02 05:44:20;;;;;;;91.80;36.00;;;7.10;99.90;;;;;;5248356;28;20205;-68
2021/10/02 05:46:52;;;;;;;71.50;33.37;;;7.20;99.90;;;;;;5249421;28;20197;-69
2021/10/02 05:49:24;;;;;;;81.47;36.30;;;7.20;99.90;;;;;;5249431;28;20274;-69
2021/10/02 05:51:58;;;;;;;81.80;34.60;;;7.20;99.90;;;;;;5249276;28;20204;-66
2021/10/02 05:54:31;;;;;;;71.63;34.10;;;7.30;99.90;;;;;;5248382;28;20212;-69
2021/10/02 05:57:03;;;;;;;68.43;33.60;;;7.40;99.90;;;;;;5249847;28;20559;-70
2021/10/02 05:59:35;;;;;;;69.17;32.47;;;7.40;99.90;;;;;;5249257;28;20215;-67
2021/10/02 06:02:07;;;;;;;70.77;32.97;;;7.40;99.90;;;;;;5248871;28;20240;-69
2021/10/02 06:04:42;;;;;;;68.30;32.17;;;7.50;99.90;;;;;;5249206;28;20193;-70
2021/10/02 06:07:16;;;;;;;70.47;32.33;;;7.60;99.90;;;;;;5248978;28;20203;-69
2021/10/02 06:09:48;;;;;;;72.87;32.67;;;7.60;99.90;;;;;;5249069;28;20204;-65
2021/10/02 06:12:22;;;;;;;67.87;33.77;;;7.70;99.90;;;;;;5249750;28;20215;-72
2021/10/02 06:14:57;;;;;;;68.63;32.63;;;7.70;99.90;;;;;;5249535;28;20212;-65
2021/10/02 06:17:29;;;;;;;72.63;32.90;;;7.80;99.90;;;;;;5249388;28;20204;-69
2021/10/02 06:20:03;;;;;;;66.00;32.77;;;7.80;99.90;;;;;;5249221;28;20219;-71
2021/10/02 06:22:38;;;;;;;63.20;32.83;;;7.80;99.90;;;;;;5248272;28;20323;-66
2021/10/02 06:25:11;;;;;;;66.43;32.37;;;7.80;99.90;;;;;;5249008;28;20211;-67
2021/10/02 06:27:43;;;;;;;66.27;34.53;;;7.80;99.90;;;;;;5248438;28;20201;-67
2021/10/02 06:30:15;;;;;;;65.87;33.33;;;7.90;99.90;;;;;;5249446;28;20322;-70
2021/10/02 06:32:47;;;;;;;64.33;34.10;;;7.90;99.90;;;;;;5249714;28;20622;-66
2021/10/02 06:35:19;;;;;;;62.40;33.00;;;8.00;99.90;;;;;;5248885;28;20209;-68
2021/10/02 06:37:51;;;;;;;64.43;31.50;;;8.00;99.90;;;;;;5251051;28;20662;-67
2021/10/02 06:40:25;;;;;;;63.43;31.43;;;8.00;99.90;;;;;;5252741;28;20530;-65
2021/10/02 06:42:57;;;;;;;69.67;33.70;;;8.10;99.90;;;;;;5252519;28;20229;-69
2021/10/02 06:45:29;;;;;;;62.87;31.53;;;8.20;99.90;;;;;;5251664;28;20643;-63
2021/10/02 06:48:02;;;;;;;67.30;33.77;;;8.20;99.90;;;;;;5252522;28;20204;-66
2021/10/02 06:50:37;;;;;;;66.93;33.30;;;8.30;99.90;;;;;;5252803;28;20605;-68
2021/10/02 06:53:11;;;;;;;63.23;33.90;;;8.30;99.90;;;;;;5252426;28;20224;-67
2021/10/02 06:55:43;;;;;;;63.23;31.67;;;8.30;99.90;;;;;;5251443;28;20201;-66
2021/10/02 06:58:15;;;;;;;60.77;31.23;;;8.30;99.90;;;;;;5252375;28;20236;-65
2021/10/02 07:00:49;;;;;;;56.73;31.43;;;8.40;99.90;;;;;;5252505;28;20259;-68
2021/10/02 07:03:21;;;;;;;62.70;33.40;;;8.40;99.90;;;;;;5251584;28;20247;-67
2021/10/02 07:05:53;;;;;;;59.27;32.60;;;8.50;99.90;;;;;;5252988;28;20231;-66
2021/10/02 07:08:25;;;;;;;61.57;31.47;;;8.50;99.90;;;;;;5251028;28;20228;-65
2021/10/02 07:10:57;;;;;;;60.30;32.73;;;8.50;99.90;;;;;;5252047;28;20216;-67
2021/10/02 07:13:29;;;;;;;58.90;30.90;;;8.60;99.90;;;;;;5252507;28;20234;-65
2021/10/02 07:16:02;;;;;;;64.37;34.07;;;8.60;99.90;;;;;;5251568;28;20227;-69
2021/10/02 07:18:34;;;;;;;61.87;33.37;;;8.50;99.90;;;;;;5252492;28;20243;-66
2021/10/02 07:21:08;;;;;;;59.87;33.07;;;8.50;99.90;;;;;;5252346;28;20228;-68
2021/10/02 07:23:40;;;;;;;64.30;31.90;;;8.50;99.90;;;;;;5251677;28;20231;-68
2021/10/02 07:26:12;;;;;;;56.90;32.27;;;8.40;99.90;;;;;;5252766;28;20227;-71
2021/10/02 07:28:44;;;;;;;60.07;32.43;;;8.30;99.90;;;;;;5252346;28;20228;-66
2021/10/02 07:31:16;;;;;;;56.77;32.07;;;8.40;99.90;;;;;;5252225;28;20266;-64
2021/10/02 07:33:49;;;;;;;59.83;31.90;;;8.40;99.90;;;;;;5252849;28;20229;-65
2021/10/02 07:36:22;;;;;;;63.27;32.80;;;8.40;99.90;;;;;;5253857;28;20205;-70
2021/10/02 07:38:56;;;;;;;56.80;30.83;;;8.40;99.90;;;;;;5253089;28;20243;-68
2021/10/02 07:41:32;;;;;;;52.90;30.20;;;8.50;99.90;;;;;;5254066;28;20209;-69
2021/10/02 07:44:05;;;;;;;51.50;28.07;;;8.60;99.90;;;;;;5242657;28;20233;-65
2021/10/02 07:46:46;;;;;;;58.40;30.87;;;8.60;99.90;;;;;;5250130;28;20238;-69
2021/10/02 07:49:19;;;;;;;47.00;28.73;;;8.60;99.90;;;;;;5232343;28;20235;-68
2021/10/02 07:51:51;;;;;;;54.27;29.80;;;8.60;99.90;;;;;;5250100;28;20613;-70
2021/10/02 07:54:27;;;;;;;52.97;29.27;;;8.60;99.90;;;;;;5250676;28;20328;-68
2021/10/02 07:57:00;;;;;;;53.10;28.17;;;8.60;99.90;;;;;;5251711;28;20215;-65
2021/10/02 07:59:32;;;;;;;56.70;29.93;;;8.70;99.90;;;;;;5251419;28;20241;-74
2021/10/02 08:02:09;;;;;;;53.13;28.90;;;8.70;99.90;;;;;;5251667;28;20228;-66
2021/10/02 08:04:42;;;;;;;57.63;29.80;;;8.70;99.90;;;;;;5262322;28;20675;-71
2021/10/02 08:07:14;;;;;;;54.70;28.00;;;8.80;99.90;;;;;;5262847;28;20193;-70
2021/10/02 08:09:49;;;;;;;54.53;28.13;;;8.80;99.90;;;;;;5272684;28;20224;-71
2021/10/02 08:12:22;;;;;;;50.80;28.50;;;8.80;99.90;;;;;;5272876;28;20184;-67
2021/10/02 08:14:57;;;;;;;61.63;28.87;;;8.90;99.90;;;;;;5254382;28;20247;-71
2021/10/02 08:17:31;;;;;;;53.73;29.20;;;8.90;99.90;;;;;;5253987;28;20223;-70
2021/10/02 08:20:08;;;;;;;69.00;29.73;;;8.90;99.90;;;;;;5264167;28;20224;-72
2021/10/02 08:22:49;;;;;;;56.97;28.73;;;8.90;99.90;;;;;;5250825;28;20220;-68
2021/10/02 08:25:21;;;;;;;52.07;30.67;;;8.90;99.90;;;;;;5250810;28;20236;-68
2021/10/02 08:27:58;;;;;;;61.43;29.87;;;8.80;99.90;;;;;;5250553;28;20200;-72
2021/10/02 08:30:31;;;;;;;65.73;31.50;;;8.90;99.90;;;;;;5251110;28;20225;-72
2021/10/02 08:33:06;;;;;;;53.40;29.83;;;9.00;99.90;;;;;;5250717;28;20205;-72
2021/10/02 08:35:40;;;;;;;57.70;30.87;;;9.00;99.90;;;;;;5252260;28;20232;-72
2021/10/02 08:38:12;;;;;;;64.43;32.93;;;9.10;99.90;;;;;;5251120;28;20185;-71
2021/10/02 08:40:45;;;;;;;61.77;32.73;;;9.00;99.90;;;;;;5250963;28;20224;-73
2021/10/02 08:43:20;;;;;;;57.70;31.73;;;9.10;99.90;;;;;;5248826;28;20209;-67
2021/10/02 08:45:52;;;;;;;62.47;32.23;;;9.10;99.90;;;;;;5233026;28;20196;-70
2021/10/02 08:48:25;;;;;;;65.67;33.27;;;9.20;99.90;;;;;;5250388;28;20201;-68
2021/10/02 08:51:18;;;;;;;63.93;32.53;;;9.30;99.90;;;;;;5249273;28;20236;-71
2021/10/02 08:53:54;;;;;;;57.50;31.07;;;9.40;99.90;;;;;;5249279;28;20185;-70
2021/10/02 08:56:27;;;;;;;53.77;31.10;;;9.40;99.90;;;;;;5249142;28;20707;-70
2021/10/02 08:59:00;;;;;;;56.93;31.37;;;9.50;99.90;;;;;;5250239;28;20208;-71
2021/10/02 09:01:32;;;;;;;55.57;30.30;;;9.50;99.90;;;;;;5249685;28;20229;-68
2021/10/02 09:04:05;;;;;;;54.37;30.83;;;9.60;99.90;;;;;;5231725;28;20248;-67
2021/10/02 09:06:37;;;;;;;55.33;30.37;;;9.70;99.90;;;;;;5248783;28;20204;-67
2021/10/02 09:09:09;;;;;;;54.73;30.77;;;9.70;99.90;;;;;;5249385;28;20197;-70
2021/10/02 09:11:44;;;;;;;51.60;30.13;;;9.70;99.90;;;;;;5249710;28;20229;-70
2021/10/02 09:14:16;;;;;;;53.20;30.70;;;9.70;99.90;;;;;;5249398;28;20203;-71
2021/10/02 09:16:48;;;;;;;55.20;31.50;;;9.80;99.90;;;;;;5249680;28;20197;-69
2021/10/02 09:19:20;;;;;;;53.73;31.33;;;9.90;99.90;;;;;;5248629;28;20632;-68
2021/10/02 09:22:03;;;;;;;55.17;30.03;;;9.90;99.90;;;;;;5249521;28;20220;-69
2021/10/02 09:24:38;;;;;;;51.73;29.60;;;10.00;99.90;;;;;;5252561;28;20332;-69
2021/10/02 09:27:22;;;;;;;55.57;32.33;;;10.00;99.90;;;;;;5257065;28;20192;-66
2021/10/02 09:30:06;;;;;;;51.63;31.77;;;10.10;99.90;;;;;;5249863;28;20256;-69
2021/10/02 09:32:41;;;;;;;54.20;30.50;;;10.10;99.90;;;;;;5266302;28;20189;-69
2021/10/02 09:35:16;;;;;;;51.70;30.43;;;10.20;99.90;;;;;;5248250;28;20565;-68
2021/10/02 09:37:56;;;;;;;52.87;31.00;;;10.20;99.90;;;;;;5249013;28;20200;-71
2021/10/02 09:40:29;;;;;;;49.60;29.67;;;10.20;99.90;;;;;;5248702;28;20209;-66
2021/10/02 09:43:03;;;;;;;52.83;30.70;;;10.20;99.90;;;;;;5239449;28;20220;-67
2021/10/02 09:45:41;;;;;;;55.03;30.73;;;10.30;99.90;;;;;;5258349;28;20639;-66
2021/10/02 09:48:15;;;;;;;49.90;30.10;;;10.30;99.90;;;;;;5249454;28;20219;-68
2021/10/02 09:50:49;;;;;;;50.63;30.17;;;10.30;99.90;;;;;;5255263;28;20497;-67
2021/10/02 09:53:21;;;;;;;48.40;28.70;;;10.40;99.90;;;;;;5257979;28;20215;-67
2021/10/02 09:55:55;;;;;;;49.90;29.53;;;10.40;99.90;;;;;;5248048;28;20481;-70
2021/10/02 09:58:27;;;;;;;50.73;30.40;;;10.50;99.90;;;;;;5265109;28;20217;-71
2021/10/02 10:01:04;;;;;;;52.17;29.67;;;10.50;99.90;;;;;;5255522;28;20200;-70
2021/10/02 10:03:44;;;;;;;51.37;29.80;;;10.40;99.90;;;;;;5248360;28;20708;-67
2021/10/02 10:06:20;;;;;;;47.43;29.13;;;10.50;99.90;;;;;;5250197;28;20503;-70
2021/10/02 10:09:07;;;;;;;47.60;30.27;;;10.50;99.90;;;;;;5250063;28;20200;-73
2021/10/02 10:11:55;;;;;;;50.87;30.37;;;10.60;99.90;;;;;;5249098;28;20193;-68
2021/10/02 10:14:28;;;;;;;52.03;29.40;;;10.60;99.90;;;;;;5232820;28;20530;-69
2021/10/02 10:17:00;;;;;;;54.20;31.63;;;10.70;99.90;;;;;;5239778;28;20250;-69
2021/10/02 10:19:34;;;;;;;51.20;31.43;;;10.80;99.90;;;;;;5265293;28;20208;-71
2021/10/02 10:22:18;;;;;;;50.60;32.13;;;10.80;99.90;;;;;;5258051;28;20220;-72
2021/10/02 10:25:08;;;;;;;54.40;33.57;;;10.80;99.90;;;;;;5232946;28;20292;-68
2021/10/02 10:27:42;;;;;;;53.20;32.07;;;10.90;99.90;;;;;;5256874;28;20184;-69
2021/10/02 10:30:18;;;;;;;52.00;32.03;;;10.90;99.90;;;;;;5270986;28;20192;-70
2021/10/02 10:33:05;;;;;;;55.17;32.77;;;10.90;99.90;;;;;;5253973;28;20666;-68
2021/10/02 10:35:49;;;;;;;51.23;31.10;;;11.00;99.90;;;;;;5266417;28;20201;-74
2021/10/02 10:38:24;;;;;;;52.10;30.53;;;11.00;99.90;;;;;;5235261;28;20190;-67
2021/10/02 10:40:56;;;;;;;48.13;29.53;;;11.10;99.90;;;;;;5268693;28;20219;-69
2021/10/02 10:43:29;;;;;;;47.43;30.60;;;11.10;99.90;;;;;;5262495;28;20699;-71
2021/10/02 10:46:05;;;;;;;53.70;32.50;;;11.20;99.90;;;;;;5269107;28;20196;-71
2021/10/02 10:48:38;;;;;;;51.47;31.23;;;11.30;99.90;;;;;;5268644;28;20288;-68
2021/10/02 10:51:14;;;;;;;49.03;30.57;;;11.40;99.90;;;;;;5261402;28;20200;-73
2021/10/02 10:53:51;;;;;;;51.67;31.53;;;11.50;99.90;;;;;;5273518;28;20537;-70
2021/10/02 10:56:46;;;;;;;50.53;31.70;;;11.60;99.90;;;;;;5257118;28;20243;-75
2021/10/02 10:59:19;;;;;;;48.67;30.37;;;11.60;99.90;;;;;;5262841;28;20201;-76
2021/10/02 11:01:51;;;;;;;52.13;32.70;;;11.60;99.90;;;;;;5265200;28;20208;-68
2021/10/02 11:04:37;;;;;;;45.40;29.63;;;11.50;99.90;;;;;;5271810;28;20283;-70
2021/10/02 11:07:14;;;;;;;48.63;29.97;;;11.50;99.90;;;;;;5264803;28;20205;-69
2021/10/02 11:09:46;;;;;;;47.83;30.20;;;11.50;99.90;;;;;;5264677;28;20198;-75
2021/10/02 11:12:18;;;;;;;49.27;31.07;;;11.50;99.90;;;;;;5270369;28;20521;-70
2021/10/02 11:14:50;;;;;;;126.23;61.60;;;11.40;99.90;;;;;;5261957;28;20207;-59
2021/10/02 11:17:31;;;;;;;94.83;53.47;;;11.50;99.90;;;;;;5262335;28;20211;-58
2021/10/02 11:20:21;;;;;;;109.77;55.87;;;11.60;99.90;;;;;;5267776;28;20199;-60
2021/10/02 11:23:31;;;;;;;61.20;35.07;;;11.60;99.90;;;;;;5262385;28;20555;-62
2021/10/02 11:26:17;;;;;;;57.37;33.07;;;11.60;99.90;;;;;;5262144;28;20200;-61
2021/10/02 11:29:20;;;;;;;50.60;32.90;;;11.80;99.90;;;;;;5241248;28;20244;-58
2021/10/02 11:32:21;;;;;;;57.90;32.37;;;11.90;99.90;;;;;;5266722;28;20199;-59
2021/10/02 11:35:12;;;;;;;49.63;29.83;;;12.00;99.90;;;;;;5267391;28;20226;-59
2021/10/02 11:37:53;;;;;;;48.37;28.70;;;12.10;99.90;;;;;;5259590;28;20280;-71
2021/10/02 11:40:39;;;;;;;47.47;30.37;;;12.20;99.90;;;;;;5267416;28;20192;-69
2021/10/02 11:43:15;;;;;;;42.50;27.50;;;12.10;99.90;;;;;;5260753;28;20219;-72
2021/10/02 11:45:47;;;;;;;46.63;28.10;;;12.20;99.90;;;;;;5257884;28;20189;-71
2021/10/02 11:48:35;;;;;;;46.93;28.93;;;12.20;99.90;;;;;;5268520;28;20523;-70
2021/10/02 11:51:14;;;;;;;43.57;27.97;;;12.20;99.90;;;;;;5250077;28;20284;-72
2021/10/02 11:53:53;;;;;;;46.23;27.63;;;12.30;99.90;;;;;;5248577;28;20634;-68
2021/10/02 11:56:29;;;;;;;50.83;29.30;;;12.40;99.90;;;;;;5252054;28;20529;-71
2021/10/02 11:59:03;;;;;;;47.17;29.27;;;12.50;99.90;;;;;;5260658;28;20210;-70
2021/10/02 12:01:43;;;;;;;43.87;27.77;;;12.60;99.90;;;;;;5260012;28;20225;-72
2021/10/02 12:04:15;;;;;;;41.17;26.30;;;12.70;99.90;;;;;;5236990;28;20250;-74
2021/10/02 12:06:47;;;;;;;37.10;25.20;;;12.70;99.90;;;;;;5253256;28;20592;-70
2021/10/02 12:09:19;;;;;;;37.70;25.97;;;12.70;99.90;;;;;;5251263;28;20545;-69
2021/10/02 12:11:54;;;;;;;39.77;26.73;;;12.70;99.90;;;;;;5251270;28;20197;-73
2021/10/02 12:14:27;;;;;;;41.13;25.93;;;12.70;99.90;;;;;;5261474;28;20631;-70
2021/10/02 12:17:02;;;;;;;38.43;25.97;;;12.70;99.90;;;;;;5265732;28;20200;-69
2021/10/02 12:19:35;;;;;;;40.43;25.73;;;12.70;99.90;;;;;;5254297;28;20231;-69
2021/10/02 12:22:07;;;;;;;37.17;23.97;;;12.80;99.90;;;;;;5263008;28;20200;-71
2021/10/02 12:24:40;;;;;;;37.80;25.70;;;12.80;99.90;;;;;;5240297;28;20188;-70
2021/10/02 12:27:18;;;;;;;40.33;26.07;;;12.90;99.90;;;;;;5261492;28;20197;-69
2021/10/02 12:29:51;;;;;;;40.20;25.57;;;12.90;99.90;;;;;;5250480;28;20199;-70
2021/10/02 12:32:25;;;;;;;42.57;26.70;;;12.80;99.90;;;;;;5251271;28;20200;-71
2021/10/02 12:35:00;;;;;;;36.70;25.67;;;12.80;99.90;;;;;;5251240;28;20226;-69
2021/10/02 12:37:35;;;;;;;38.80;26.53;;;12.80;99.90;;;;;;5250500;28;20257;-70
2021/10/02 12:40:12;;;;;;;40.90;27.47;;;12.80;99.90;;;;;;5249743;28;20200;-70
2021/10/02 12:42:47;;;;;;;38.60;26.20;;;12.70;99.90;;;;;;5250436;28;20652;-73
2021/10/02 12:45:31;;;;;;;41.27;27.13;;;12.60;99.90;;;;;;5258014;28;20231;-71
2021/10/02 12:48:05;;;;;;;44.27;27.37;;;12.50;99.90;;;;;;5255547;28;20525;-67
2021/10/02 12:50:43;;;;;;;39.70;27.80;;;12.40;99.90;;;;;;5250093;28;20220;-68
2021/10/02 12:53:19;;;;;;;40.37;27.00;;;12.40;99.90;;;;;;5259426;28;20515;-66
2021/10/02 12:55:53;;;;;;;39.27;26.17;;;12.40;99.90;;;;;;5264034;28;20192;-68
2021/10/02 12:58:25;;;;;;;39.83;26.83;;;12.40;99.90;;;;;;5251218;28;20536;-67
2021/10/02 13:00:58;;;;;;;41.67;26.17;;;12.40;99.90;;;;;;5231746;28;20253;-70
2021/10/02 13:03:38;;;;;;;45.30;27.27;;;12.50;99.90;;;;;;5249628;28;20571;-65
2021/10/02 13:06:10;;;;;;;39.00;26.43;;;12.60;99.90;;;;;;5250100;28;20250;-65
2021/10/02 13:08:44;;;;;;;40.57;25.53;;;12.60;99.90;;;;;;5254769;28;20218;-68
2021/10/02 13:11:30;;;;;;;40.03;25.93;;;12.60;99.90;;;;;;5251342;28;20202;-68
2021/10/02 13:14:02;;;;;;;38.67;25.43;;;12.50;99.90;;;;;;5249653;28;20200;-69
2021/10/02 13:16:34;;;;;;;41.73;25.83;;;12.50;99.90;;;;;;5253962;28;20200;-71
2021/10/02 13:19:06;;;;;;;41.70;27.70;;;12.40;99.90;;;;;;5266665;28;20204;-66
2021/10/02 13:21:38;;;;;;;43.27;27.83;;;12.30;99.90;;;;;;5256072;28;20197;-69
2021/10/02 13:24:10;;;;;;;41.03;26.63;;;12.30;99.90;;;;;;5249201;28;20252;-67
2021/10/02 13:26:46;;;;;;;44.77;28.83;;;12.30;99.90;;;;;;5266866;28;20621;-66
2021/10/02 13:29:27;;;;;;;42.57;28.33;;;12.30;99.90;;;;;;5251211;28;20232;-65
2021/10/02 13:32:15;;;;;;;41.33;27.43;;;12.40;99.90;;;;;;5257925;28;20587;-68
2021/10/02 13:34:52;;;;;;;42.97;28.47;;;12.50;99.90;;;;;;5245989;28;20197;-66
2021/10/02 13:37:25;;;;;;;41.27;27.67;;;12.50;99.90;;;;;;5249372;28;20216;-66
2021/10/02 13:40:01;;;;;;;40.63;28.23;;;12.60;99.90;;;;;;5256737;28;20632;-71
2021/10/02 13:42:33;;;;;;;42.43;27.27;;;12.70;99.90;;;;;;5249551;28;20207;-67
2021/10/02 13:45:06;;;;;;;42.50;28.27;;;12.80;99.90;;;;;;5256002;28;20216;-68
2021/10/02 13:47:38;;;;;;;45.47;28.40;;;12.80;99.90;;;;;;5265279;28;20214;-66
2021/10/02 13:50:10;;;;;;;40.90;27.97;;;12.80;99.90;;;;;;5263890;28;20200;-66
2021/10/02 13:52:43;;;;;;;41.83;27.00;;;12.80;99.90;;;;;;5249893;28;20205;-67
2021/10/02 13:55:15;;;;;;;44.27;27.77;;;12.70;99.90;;;;;;5249032;28;20216;-67
2021/10/02 13:57:48;;;;;;;40.40;27.70;;;12.70;99.90;;;;;;5249369;28;20268;-67
2021/10/02 14:00:20;;;;;;;41.10;27.07;;;12.70;99.90;;;;;;5248316;28;20215;-69
2021/10/02 14:02:53;;;;;;;40.70;26.63;;;12.60;99.90;;;;;;5249172;28;20247;-72
2021/10/02 14:05:26;;;;;;;42.17;27.27;;;12.60;99.90;;;;;;5248776;28;20266;-69